Qtas de Morovis, Puerto Rico
Current Conditions -  °F | °C
As of 10:56 AM on Thursday 30 Oct 2014 (Local Time) from TJSJ Reporting Station
Scattered Clouds Scattered Clouds  
Wind Chill: 86°   Ceiling: Unl
Heat Index: 97°   Visibility: 10mi
Dew Point: 77°   Wind: 6mph
Humidity: 74%   Direction: 330°NNW
Pressure: 29.85"   Gusts: NA
Location:  18.3346°N, 66.4186°W
Report Text: TJSJ 301456Z 33005KT 10SM FEW028 SCT050 SCT065 30/25 A2985 RMK AO2 SLP108 SHRA DSNT NW T03000250 50003
Loading
Personal Weather Stations






























Interactive Weather Map
Tropical Storm Tracking
New forecast layout! Learn more

10-Day Weather Forecast

Advertisements
Track Severe Weather on mobile